sensor_id;sensor_type;location;lat;lon;timestamp;temperature;humidity
19868;DHT22;10096;51.112;6.776;2023-02-05T00:01:24;8.60;99.90
19868;DHT22;10096;51.112;6.776;2023-02-05T00:03:51;8.20;99.90
19868;DHT22;10096;51.112;6.776;2023-02-05T00:06:20;8.10;99.90
19868;DHT22;10096;51.112;6.776;2023-02-05T00:08:50;7.90;99.90
19868;DHT22;10096;51.112;6.776;2023-02-05T00:11:17;8.20;99.90
19868;DHT22;10096;51.112;6.776;2023-02-05T00:13:44;8.10;99.90
19868;DHT22;10096;51.112;6.776;2023-02-05T00:16:13;8.30;99.90
19868;DHT22;10096;51.112;6.776;2023-02-05T00:18:40;8.30;99.90
19868;DHT22;10096;51.112;6.776;2023-02-05T00:21:08;8.60;99.90
19868;DHT22;10096;51.112;6.776;2023-02-05T00:23:35;8.30;99.90
19868;DHT22;10096;51.112;6.776;2023-02-05T00:26:08;8.00;99.90
19868;DHT22;10096;51.112;6.776;2023-02-05T00:28:38;8.00;1.00
19868;DHT22;10096;51.112;6.776;2023-02-05T00:31:11;8.10;1.00
19868;DHT22;10096;51.112;6.776;2023-02-05T00:33:38;8.30;1.00
19868;DHT22;10096;51.112;6.776;2023-02-05T00:36:06;8.30;1.00
19868;DHT22;10096;51.112;6.776;2023-02-05T00:38:33;8.40;1.00
19868;DHT22;10096;51.112;6.776;2023-02-05T00:41:01;8.30;1.00
19868;DHT22;10096;51.112;6.776;2023-02-05T00:43:29;8.50;99.90
19868;DHT22;10096;51.112;6.776;2023-02-05T00:45:56;8.50;99.90
19868;DHT22;10096;51.112;6.776;2023-02-05T00:48:24;8.60;99.90
19868;DHT22;10096;51.112;6.776;2023-02-05T00:50:51;8.30;99.90
19868;DHT22;10096;51.112;6.776;2023-02-05T00:53:18;8.20;99.90
19868;DHT22;10096;51.112;6.776;2023-02-05T00:55:46;8.20;99.90
19868;DHT22;10096;51.112;6.776;2023-02-05T00:58:13;8.30;1.00
19868;DHT22;10096;51.112;6.776;2023-02-05T01:00:42;8.00;1.00
19868;DHT22;10096;51.112;6.776;2023-02-05T01:03:09;8.00;1.00
19868;DHT22;10096;51.112;6.776;2023-02-05T01:05:37;7.80;1.00
19868;DHT22;10096;51.112;6.776;2023-02-05T01:08:05;7.80;1.00
19868;DHT22;10096;51.112;6.776;2023-02-05T01:10:33;7.80;1.00
19868;DHT22;10096;51.112;6.776;2023-02-05T01:13:01;7.60;1.00
19868;DHT22;10096;51.112;6.776;2023-02-05T01:15:28;7.80;1.00
19868;DHT22;10096;51.112;6.776;2023-02-05T01:17:57;7.90;1.00
19868;DHT22;10096;51.112;6.776;2023-02-05T01:20:24;7.90;15.90
19868;DHT22;10096;51.112;6.776;2023-02-05T01:22:51;7.90;1.00
19868;DHT22;10096;51.112;6.776;2023-02-05T01:25:18;7.70;1.00
19868;DHT22;10096;51.112;6.776;2023-02-05T01:27:45;7.60;99.90
19868;DHT22;10096;51.112;6.776;2023-02-05T01:30:13;7.40;99.90
19868;DHT22;10096;51.112;6.776;2023-02-05T01:32:40;7.50;99.90
19868;DHT22;10096;51.112;6.776;2023-02-05T01:35:09;7.60;99.90
19868;DHT22;10096;51.112;6.776;2023-02-05T01:37:36;7.70;1.00
19868;DHT22;10096;51.112;6.776;2023-02-05T01:40:04;7.90;1.00
19868;DHT22;10096;51.112;6.776;2023-02-05T01:42:32;7.90;1.00
19868;DHT22;10096;51.112;6.776;2023-02-05T01:45:39;7.80;99.90
19868;DHT22;10096;51.112;6.776;2023-02-05T01:48:19;7.80;99.90
19868;DHT22;10096;51.112;6.776;2023-02-05T01:50:51;7.90;1.00
19868;DHT22;10096;51.112;6.776;2023-02-05T01:53:23;8.00;99.90
19868;DHT22;10096;51.112;6.776;2023-02-05T01:55:53;8.00;99.90
19868;DHT22;10096;51.112;6.776;2023-02-05T01:58:22;8.10;99.90
19868;DHT22;10096;51.112;6.776;2023-02-05T02:00:50;8.20;99.90
19868;DHT22;10096;51.112;6.776;2023-02-05T02:03:17;7.70;99.90
19868;DHT22;10096;51.112;6.776;2023-02-05T02:05:44;8.00;99.90
19868;DHT22;10096;51.112;6.776;2023-02-05T02:08:12;8.30;99.90
19868;DHT22;10096;51.112;6.776;2023-02-05T02:10:42;8.10;32.00
19868;DHT22;10096;51.112;6.776;2023-02-05T02:13:10;8.20;99.90
19868;DHT22;10096;51.112;6.776;2023-02-05T02:15:39;8.10;99.90
19868;DHT22;10096;51.112;6.776;2023-02-05T02:18:07;8.20;99.90
19868;DHT22;10096;51.112;6.776;2023-02-05T02:21:18;7.90;78.90
19868;DHT22;10096;51.112;6.776;2023-02-05T02:24:03;8.20;24.90
19868;DHT22;10096;51.112;6.776;2023-02-05T02:26:47;8.40;20.20
19868;DHT22;10096;51.112;6.776;2023-02-05T02:29:25;8.20;22.50
19868;DHT22;10096;51.112;6.776;2023-02-05T02:31:58;8.20;1.00
19868;DHT22;10096;51.112;6.776;2023-02-05T02:34:31;8.30;1.00
19868;DHT22;10096;51.112;6.776;2023-02-05T02:37:07;8.50;1.00
19868;DHT22;10096;51.112;6.776;2023-02-05T02:39:39;8.40;1.00
19868;DHT22;10096;51.112;6.776;2023-02-05T02:42:13;8.30;1.00
19868;DHT22;10096;51.112;6.776;2023-02-05T02:44:47;8.40;1.00
19868;DHT22;10096;51.112;6.776;2023-02-05T02:47:19;8.50;1.00
19868;DHT22;10096;51.112;6.776;2023-02-05T02:49:51;8.40;1.00
19868;DHT22;10096;51.112;6.776;2023-02-05T02:52:20;8.60;1.00
19868;DHT22;10096;51.112;6.776;2023-02-05T02:54:52;8.30;1.00
19868;DHT22;10096;51.112;6.776;2023-02-05T02:57:26;8.50;1.00
19868;DHT22;10096;51.112;6.776;2023-02-05T02:59:59;8.00;1.00
19868;DHT22;10096;51.112;6.776;2023-02-05T03:02:31;8.00;1.00
19868;DHT22;10096;51.112;6.776;2023-02-05T03:05:02;8.20;1.00
19868;DHT22;10096;51.112;6.776;2023-02-05T03:07:33;7.90;1.00
19868;DHT22;10096;51.112;6.776;2023-02-05T03:10:08;7.70;1.00
19868;DHT22;10096;51.112;6.776;2023-02-05T03:12:36;8.00;1.00
19868;DHT22;10096;51.112;6.776;2023-02-05T03:15:06;8.00;10.80
19868;DHT22;10096;51.112;6.776;2023-02-05T03:17:34;7.90;24.10
19868;DHT22;10096;51.112;6.776;2023-02-05T03:20:07;7.90;99.90
19868;DHT22;10096;51.112;6.776;2023-02-05T03:22:35;7.70;99.90
19868;DHT22;10096;51.112;6.776;2023-02-05T03:25:04;7.70;99.90
19868;DHT22;10096;51.112;6.776;2023-02-05T03:27:31;7.70;99.90
19868;DHT22;10096;51.112;6.776;2023-02-05T03:30:01;7.70;99.90
19868;DHT22;10096;51.112;6.776;2023-02-05T03:32:42;7.80;1.00
19868;DHT22;10096;51.112;6.776;2023-02-05T03:35:22;7.50;1.00
19868;DHT22;10096;51.112;6.776;2023-02-05T03:38:03;7.80;1.00
19868;DHT22;10096;51.112;6.776;2023-02-05T03:40:40;7.90;1.00
19868;DHT22;10096;51.112;6.776;2023-02-05T03:43:12;7.90;1.00
19868;DHT22;10096;51.112;6.776;2023-02-05T03:45:48;8.00;1.00
19868;DHT22;10096;51.112;6.776;2023-02-05T03:51:19;8.20;1.00
19868;DHT22;10096;51.112;6.776;2023-02-05T03:53:58;8.00;1.00
19868;DHT22;10096;51.112;6.776;2023-02-05T03:56:31;7.90;1.00
19868;DHT22;10096;51.112;6.776;2023-02-05T03:59:01;8.00;1.00
19868;DHT22;10096;51.112;6.776;2023-02-05T04:01:29;7.80;8.40
19868;DHT22;10096;51.112;6.776;2023-02-05T04:03:58;7.90;99.90
19868;DHT22;10096;51.112;6.776;2023-02-05T04:06:25;8.30;99.90
19868;DHT22;10096;51.112;6.776;2023-02-05T04:08:52;7.70;1.00
19868;DHT22;10096;51.112;6.776;2023-02-05T04:11:20;8.10;46.20
19868;DHT22;10096;51.112;6.776;2023-02-05T04:13:47;7.90;99.90
19868;DHT22;10096;51.112;6.776;2023-02-05T04:16:14;8.10;99.90
19868;DHT22;10096;51.112;6.776;2023-02-05T04:18:41;8.40;99.90
19868;DHT22;10096;51.112;6.776;2023-02-05T04:21:10;8.20;1.00
19868;DHT22;10096;51.112;6.776;2023-02-05T04:23:37;8.20;1.00
19868;DHT22;10096;51.112;6.776;2023-02-05T04:26:04;8.10;20.10
19868;DHT22;10096;51.112;6.776;2023-02-05T04:28:45;8.20;99.90
19868;DHT22;10096;51.112;6.776;2023-02-05T04:31:12;8.50;99.90
19868;DHT22;10096;51.112;6.776;2023-02-05T04:33:40;8.60;20.00
19868;DHT22;10096;51.112;6.776;2023-02-05T04:36:10;8.50;99.90
19868;DHT22;10096;51.112;6.776;2023-02-05T04:38:37;8.70;72.20
19868;DHT22;10096;51.112;6.776;2023-02-05T04:41:05;8.60;1.00
19868;DHT22;10096;51.112;6.776;2023-02-05T04:43:34;8.70;1.00
19868;DHT22;10096;51.112;6.776;2023-02-05T04:46:04;9.00;1.00
19868;DHT22;10096;51.112;6.776;2023-02-05T04:48:31;8.90;1.00
19868;DHT22;10096;51.112;6.776;2023-02-05T04:50:58;8.90;1.00
19868;DHT22;10096;51.112;6.776;2023-02-05T04:53:26;8.90;1.00
19868;DHT22;10096;51.112;6.776;2023-02-05T04:56:03;8.80;1.00
19868;DHT22;10096;51.112;6.776;2023-02-05T04:58:30;8.90;1.00
19868;DHT22;10096;51.112;6.776;2023-02-05T05:00:57;8.80;1.00
19868;DHT22;10096;51.112;6.776;2023-02-05T05:03:27;8.70;1.00
19868;DHT22;10096;51.112;6.776;2023-02-05T05:06:03;8.80;1.00
19868;DHT22;10096;51.112;6.776;2023-02-05T05:08:32;8.90;1.00
19868;DHT22;10096;51.112;6.776;2023-02-05T05:11:04;8.80;1.00
19868;DHT22;10096;51.112;6.776;2023-02-05T05:13:31;8.90;1.00
19868;DHT22;10096;51.112;6.776;2023-02-05T05:15:59;8.90;1.00
19868;DHT22;10096;51.112;6.776;2023-02-05T05:18:26;8.90;99.90
19868;DHT22;10096;51.112;6.776;2023-02-05T05:20:54;8.90;1.00
19868;DHT22;10096;51.112;6.776;2023-02-05T05:23:22;8.80;99.90
19868;DHT22;10096;51.112;6.776;2023-02-05T05:25:51;8.90;99.90
19868;DHT22;10096;51.112;6.776;2023-02-05T05:28:18;9.00;99.90
19868;DHT22;10096;51.112;6.776;2023-02-05T05:30:45;8.90;99.90
19868;DHT22;10096;51.112;6.776;2023-02-05T05:33:13;9.00;99.90
19868;DHT22;10096;51.112;6.776;2023-02-05T05:35:40;9.10;99.90
19868;DHT22;10096;51.112;6.776;2023-02-05T05:38:07;8.90;99.90
19868;DHT22;10096;51.112;6.776;2023-02-05T05:40:34;8.80;99.90
19868;DHT22;10096;51.112;6.776;2023-02-05T05:43:20;9.00;99.90
19868;DHT22;10096;51.112;6.776;2023-02-05T05:46:06;8.80;99.90
19868;DHT22;10096;51.112;6.776;2023-02-05T05:48:33;8.80;1.00
19868;DHT22;10096;51.112;6.776;2023-02-05T05:51:00;8.80;99.90
19868;DHT22;10096;51.112;6.776;2023-02-05T05:53:27;9.00;99.90
19868;DHT22;10096;51.112;6.776;2023-02-05T05:55:55;8.90;99.90
19868;DHT22;10096;51.112;6.776;2023-02-05T05:58:23;9.00;99.90
19868;DHT22;10096;51.112;6.776;2023-02-05T06:00:50;8.70;99.90
19868;DHT22;10096;51.112;6.776;2023-02-05T06:03:17;8.70;1.00
19868;DHT22;10096;51.112;6.776;2023-02-05T06:05:46;8.90;1.00
19868;DHT22;10096;51.112;6.776;2023-02-05T06:08:13;8.90;1.00
19868;DHT22;10096;51.112;6.776;2023-02-05T06:10:40;8.70;1.00
19868;DHT22;10096;51.112;6.776;2023-02-05T06:13:07;8.90;1.00
19868;DHT22;10096;51.112;6.776;2023-02-05T06:15:36;8.80;1.00
19868;DHT22;10096;51.112;6.776;2023-02-05T06:18:03;8.70;1.00
19868;DHT22;10096;51.112;6.776;2023-02-05T06:20:30;8.70;99.90
19868;DHT22;10096;51.112;6.776;2023-02-05T06:22:57;8.70;1.00
19868;DHT22;10096;51.112;6.776;2023-02-05T06:25:24;8.80;1.00
19868;DHT22;10096;51.112;6.776;2023-02-05T06:27:51;8.90;1.00
19868;DHT22;10096;51.112;6.776;2023-02-05T06:30:18;8.90;1.00
19868;DHT22;10096;51.112;6.776;2023-02-05T06:32:46;8.80;99.90
19868;DHT22;10096;51.112;6.776;2023-02-05T06:35:16;8.50;99.90
19868;DHT22;10096;51.112;6.776;2023-02-05T06:37:44;8.70;99.90
19868;DHT22;10096;51.112;6.776;2023-02-05T06:40:14;8.70;99.90
19868;DHT22;10096;51.112;6.776;2023-02-05T06:42:42;8.70;1.00
19868;DHT22;10096;51.112;6.776;2023-02-05T06:45:10;8.70;1.00
19868;DHT22;10096;51.112;6.776;2023-02-05T06:47:37;8.70;99.90
19868;DHT22;10096;51.112;6.776;2023-02-05T06:50:06;8.70;99.90
19868;DHT22;10096;51.112;6.776;2023-02-05T06:52:33;8.70;99.90
19868;DHT22;10096;51.112;6.776;2023-02-05T06:55:00;8.80;99.90
19868;DHT22;10096;51.112;6.776;2023-02-05T06:57:27;8.80;99.90
19868;DHT22;10096;51.112;6.776;2023-02-05T06:59:56;8.80;99.90
19868;DHT22;10096;51.112;6.776;2023-02-05T07:02:23;8.70;99.90
19868;DHT22;10096;51.112;6.776;2023-02-05T07:04:49;8.70;99.90
19868;DHT22;10096;51.112;6.776;2023-02-05T07:07:18;8.70;99.90
19868;DHT22;10096;51.112;6.776;2023-02-05T07:09:45;9.00;99.90
19868;DHT22;10096;51.112;6.776;2023-02-05T07:12:12;8.80;99.90
19868;DHT22;10096;51.112;6.776;2023-02-05T07:14:39;8.80;99.90
19868;DHT22;10096;51.112;6.776;2023-02-05T07:17:07;8.80;99.90
19868;DHT22;10096;51.112;6.776;2023-02-05T07:19:34;8.80;40.70
19868;DHT22;10096;51.112;6.776;2023-02-05T07:22:01;8.80;43.20
19868;DHT22;10096;51.112;6.776;2023-02-05T07:24:29;8.90;1.00
19868;DHT22;10096;51.112;6.776;2023-02-05T07:26:56;8.90;1.00
19868;DHT22;10096;51.112;6.776;2023-02-05T07:29:23;8.70;1.00
19868;DHT22;10096;51.112;6.776;2023-02-05T07:31:50;8.70;12.60
19868;DHT22;10096;51.112;6.776;2023-02-05T07:34:18;8.90;1.00
19868;DHT22;10096;51.112;6.776;2023-02-05T07:36:46;8.90;1.00
19868;DHT22;10096;51.112;6.776;2023-02-05T07:39:14;8.70;2.60
19868;DHT22;10096;51.112;6.776;2023-02-05T07:41:43;8.50;13.10
19868;DHT22;10096;51.112;6.776;2023-02-05T07:44:10;8.60;1.00
19868;DHT22;10096;51.112;6.776;2023-02-05T07:46:37;8.60;18.70
19868;DHT22;10096;51.112;6.776;2023-02-05T07:49:03;8.90;18.00
19868;DHT22;10096;51.112;6.776;2023-02-05T07:51:30;8.70;2.00
19868;DHT22;10096;51.112;6.776;2023-02-05T07:53:58;8.70;1.00
19868;DHT22;10096;51.112;6.776;2023-02-05T07:56:25;8.90;1.00
19868;DHT22;10096;51.112;6.776;2023-02-05T07:58:53;8.90;1.00
19868;DHT22;10096;51.112;6.776;2023-02-05T08:01:21;9.10;1.00
19868;DHT22;10096;51.112;6.776;2023-02-05T08:03:48;8.70;1.00
19868;DHT22;10096;51.112;6.776;2023-02-05T08:06:15;8.60;1.00
19868;DHT22;10096;51.112;6.776;2023-02-05T08:08:45;8.60;16.20
19868;DHT22;10096;51.112;6.776;2023-02-05T08:11:14;8.60;1.00
19868;DHT22;10096;51.112;6.776;2023-02-05T08:13:42;8.70;1.00
19868;DHT22;10096;51.112;6.776;2023-02-05T08:16:10;8.90;1.00
19868;DHT22;10096;51.112;6.776;2023-02-05T08:18:40;8.60;1.00
19868;DHT22;10096;51.112;6.776;2023-02-05T08:21:07;8.80;1.00
19868;DHT22;10096;51.112;6.776;2023-02-05T08:23:33;8.70;1.00
19868;DHT22;10096;51.112;6.776;2023-02-05T08:26:00;8.70;1.00
19868;DHT22;10096;51.112;6.776;2023-02-05T08:28:28;8.70;1.00
19868;DHT22;10096;51.112;6.776;2023-02-05T08:30:57;8.80;1.00
19868;DHT22;10096;51.112;6.776;2023-02-05T08:33:37;8.80;1.00
19868;DHT22;10096;51.112;6.776;2023-02-05T08:36:05;8.50;1.00
19868;DHT22;10096;51.112;6.776;2023-02-05T08:38:32;8.50;1.00
19868;DHT22;10096;51.112;6.776;2023-02-05T08:41:03;8.40;1.00
19868;DHT22;10096;51.112;6.776;2023-02-05T08:43:37;8.60;1.00
19868;DHT22;10096;51.112;6.776;2023-02-05T08:46:04;8.50;1.00
19868;DHT22;10096;51.112;6.776;2023-02-05T08:48:34;8.30;1.00
19868;DHT22;10096;51.112;6.776;2023-02-05T08:51:03;8.20;1.00
19868;DHT22;10096;51.112;6.776;2023-02-05T08:53:32;8.10;1.00
19868;DHT22;10096;51.112;6.776;2023-02-05T08:56:00;8.00;1.00
19868;DHT22;10096;51.112;6.776;2023-02-05T08:58:28;8.00;1.00
19868;DHT22;10096;51.112;6.776;2023-02-05T09:01:03;8.10;99.90
19868;DHT22;10096;51.112;6.776;2023-02-05T09:03:31;7.90;99.90
19868;DHT22;10096;51.112;6.776;2023-02-05T09:06:04;7.90;99.90
19868;DHT22;10096;51.112;6.776;2023-02-05T09:08:31;7.80;99.90
19868;DHT22;10096;51.112;6.776;2023-02-05T09:10:58;7.70;99.90
19868;DHT22;10096;51.112;6.776;2023-02-05T09:13:25;7.70;99.90
19868;DHT22;10096;51.112;6.776;2023-02-05T09:15:53;7.80;99.90
19868;DHT22;10096;51.112;6.776;2023-02-05T09:18:20;7.80;99.90
19868;DHT22;10096;51.112;6.776;2023-02-05T09:20:49;7.70;99.90
19868;DHT22;10096;51.112;6.776;2023-02-05T09:23:18;7.80;99.90
19868;DHT22;10096;51.112;6.776;2023-02-05T09:25:45;8.10;99.90
19868;DHT22;10096;51.112;6.776;2023-02-05T09:28:13;7.90;99.90
19868;DHT22;10096;51.112;6.776;2023-02-05T09:30:42;7.80;99.90
19868;DHT22;10096;51.112;6.776;2023-02-05T09:33:09;7.90;99.90
19868;DHT22;10096;51.112;6.776;2023-02-05T09:35:37;7.90;99.90
19868;DHT22;10096;51.112;6.776;2023-02-05T09:38:04;8.00;99.90
19868;DHT22;10096;51.112;6.776;2023-02-05T09:40:37;8.20;99.90
19868;DHT22;10096;51.112;6.776;2023-02-05T09:43:18;8.20;99.90
19868;DHT22;10096;51.112;6.776;2023-02-05T09:45:54;8.00;99.90
19868;DHT22;10096;51.112;6.776;2023-02-05T09:51:24;7.90;99.90
19868;DHT22;10096;51.112;6.776;2023-02-05T09:53:54;8.00;99.90
19868;DHT22;10096;51.112;6.776;2023-02-05T09:56:24;7.90;99.90
19868;DHT22;10096;51.112;6.776;2023-02-05T09:58:53;7.90;99.90
19868;DHT22;10096;51.112;6.776;2023-02-05T10:01:33;8.10;99.90
19868;DHT22;10096;51.112;6.776;2023-02-05T10:04:03;7.90;99.90
19868;DHT22;10096;51.112;6.776;2023-02-05T10:06:59;8.10;99.90
19868;DHT22;10096;51.112;6.776;2023-02-05T10:09:54;8.00;99.90
19868;DHT22;10096;51.112;6.776;2023-02-05T10:12:42;7.80;99.90
19868;DHT22;10096;51.112;6.776;2023-02-05T10:15:25;8.00;99.90
19868;DHT22;10096;51.112;6.776;2023-02-05T10:18:04;7.90;99.90
19868;DHT22;10096;51.112;6.776;2023-02-05T10:20:51;7.90;99.90
19868;DHT22;10096;51.112;6.776;2023-02-05T10:23:37;8.00;99.90
19868;DHT22;10096;51.112;6.776;2023-02-05T10:26:09;8.00;99.90
19868;DHT22;10096;51.112;6.776;2023-02-05T10:28:59;8.00;99.90
19868;DHT22;10096;51.112;6.776;2023-02-05T10:31:39;8.20;99.90
19868;DHT22;10096;51.112;6.776;2023-02-05T10:34:16;8.30;99.90
19868;DHT22;10096;51.112;6.776;2023-02-05T10:36:45;8.20;99.90
19868;DHT22;10096;51.112;6.776;2023-02-05T10:39:17;8.10;99.90
19868;DHT22;10096;51.112;6.776;2023-02-05T10:41:47;8.20;99.90
19868;DHT22;10096;51.112;6.776;2023-02-05T10:44:22;8.20;99.90
19868;DHT22;10096;51.112;6.776;2023-02-05T10:46:52;8.20;99.90
19868;DHT22;10096;51.112;6.776;2023-02-05T10:49:25;8.00;99.90
19868;DHT22;10096;51.112;6.776;2023-02-05T10:51:54;8.10;99.90
19868;DHT22;10096;51.112;6.776;2023-02-05T10:54:26;8.20;99.90
19868;DHT22;10096;51.112;6.776;2023-02-05T10:56:53;8.30;99.90
19868;DHT22;10096;51.112;6.776;2023-02-05T10:59:26;8.40;99.90
19868;DHT22;10096;51.112;6.776;2023-02-05T11:01:55;8.20;99.90
19868;DHT22;10096;51.112;6.776;2023-02-05T11:04:30;8.20;99.90
19868;DHT22;10096;51.112;6.776;2023-02-05T11:07:00;8.40;99.90
19868;DHT22;10096;51.112;6.776;2023-02-05T11:09:33;8.30;99.90
19868;DHT22;10096;51.112;6.776;2023-02-05T11:12:03;8.20;99.90
19868;DHT22;10096;51.112;6.776;2023-02-05T11:14:35;8.10;99.90
19868;DHT22;10096;51.112;6.776;2023-02-05T11:17:09;8.10;99.90
19868;DHT22;10096;51.112;6.776;2023-02-05T11:19:51;8.20;99.90
19868;DHT22;10096;51.112;6.776;2023-02-05T11:22:25;8.40;99.90
19868;DHT22;10096;51.112;6.776;2023-02-05T11:25:04;8.50;99.90
19868;DHT22;10096;51.112;6.776;2023-02-05T11:27:32;8.40;99.90
19868;DHT22;10096;51.112;6.776;2023-02-05T11:30:17;8.60;99.90
19868;DHT22;10096;51.112;6.776;2023-02-05T11:32:44;8.40;99.90
19868;DHT22;10096;51.112;6.776;2023-02-05T11:35:21;8.40;99.90
19868;DHT22;10096;51.112;6.776;2023-02-05T11:37:53;8.30;99.90
19868;DHT22;10096;51.112;6.776;2023-02-05T11:40:22;8.20;99.90
19868;DHT22;10096;51.112;6.776;2023-02-05T11:42:58;8.30;99.90
19868;DHT22;10096;51.112;6.776;2023-02-05T11:45:28;8.00;99.90
19868;DHT22;10096;51.112;6.776;2023-02-05T11:47:56;8.20;99.90
19868;DHT22;10096;51.112;6.776;2023-02-05T11:50:25;8.00;99.90
19868;DHT22;10096;51.112;6.776;2023-02-05T11:52:53;7.90;1.00
19868;DHT22;10096;51.112;6.776;2023-02-05T11:55:30;8.10;1.00
19868;DHT22;10096;51.112;6.776;2023-02-05T11:58:00;7.90;1.00
19868;DHT22;10096;51.112;6.776;2023-02-05T12:00:30;7.90;1.00
19868;DHT22;10096;51.112;6.776;2023-02-05T12:03:16;7.90;1.00
19868;DHT22;10096;51.112;6.776;2023-02-05T12:05:48;7.80;1.00
19868;DHT22;10096;51.112;6.776;2023-02-05T12:08:26;8.00;99.90
19868;DHT22;10096;51.112;6.776;2023-02-05T12:11:02;7.80;99.90
19868;DHT22;10096;51.112;6.776;2023-02-05T12:13:42;8.00;99.90
19868;DHT22;10096;51.112;6.776;2023-02-05T12:16:17;7.90;99.90
19868;DHT22;10096;51.112;6.776;2023-02-05T12:18:55;7.80;99.90
19868;DHT22;10096;51.112;6.776;2023-02-05T12:21:33;7.70;99.90
19868;DHT22;10096;51.112;6.776;2023-02-05T12:24:27;7.80;99.90
19868;DHT22;10096;51.112;6.776;2023-02-05T12:27:02;7.80;99.90
19868;DHT22;10096;51.112;6.776;2023-02-05T12:29:52;7.80;99.90
19868;DHT22;10096;51.112;6.776;2023-02-05T12:32:32;7.80;99.90
19868;DHT22;10096;51.112;6.776;2023-02-05T12:35:17;7.90;99.90
19868;DHT22;10096;51.112;6.776;2023-02-05T12:37:53;7.90;99.90
19868;DHT22;10096;51.112;6.776;2023-02-05T12:40:43;7.90;99.90
19868;DHT22;10096;51.112;6.776;2023-02-05T12:43:26;8.00;99.90
19868;DHT22;10096;51.112;6.776;2023-02-05T12:45:59;7.80;99.90
19868;DHT22;10096;51.112;6.776;2023-02-05T12:48:46;8.10;99.90
19868;DHT22;10096;51.112;6.776;2023-02-05T12:51:30;7.80;99.90
19868;DHT22;10096;51.112;6.776;2023-02-05T12:54:12;7.80;99.90
19868;DHT22;10096;51.112;6.776;2023-02-05T12:56:53;7.80;99.90
19868;DHT22;10096;51.112;6.776;2023-02-05T12:59:30;7.90;99.90
19868;DHT22;10096;51.112;6.776;2023-02-05T13:02:03;8.00;94.20
19868;DHT22;10096;51.112;6.776;2023-02-05T13:04:35;8.00;53.80
19868;DHT22;10096;51.112;6.776;2023-02-05T13:07:09;8.10;95.60
19868;DHT22;10096;51.112;6.776;2023-02-05T13:09:43;8.00;91.40
19868;DHT22;10096;51.112;6.776;2023-02-05T13:12:13;8.10;93.90
19868;DHT22;10096;51.112;6.776;2023-02-05T13:14:43;8.20;50.90
19868;DHT22;10096;51.112;6.776;2023-02-05T13:17:18;8.30;37.00
19868;DHT22;10096;51.112;6.776;2023-02-05T13:19:51;8.10;27.80
19868;DHT22;10096;51.112;6.776;2023-02-05T13:22:21;8.00;18.50
19868;DHT22;10096;51.112;6.776;2023-02-05T13:25:15;8.00;37.20
19868;DHT22;10096;51.112;6.776;2023-02-05T13:31:19;8.00;1.00
19868;DHT22;10096;51.112;6.776;2023-02-05T13:33:47;7.90;1.00
19868;DHT22;10096;51.112;6.776;2023-02-05T13:39:36;7.90;1.00
19868;DHT22;10096;51.112;6.776;2023-02-05T13:42:21;8.00;1.00
19868;DHT22;10096;51.112;6.776;2023-02-05T13:45:11;8.00;1.00
19868;DHT22;10096;51.112;6.776;2023-02-05T13:47:48;8.00;1.00
19868;DHT22;10096;51.112;6.776;2023-02-05T13:50:48;8.00;1.00
19868;DHT22;10096;51.112;6.776;2023-02-05T13:53:40;8.00;1.00
19868;DHT22;10096;51.112;6.776;2023-02-05T13:56:26;8.10;1.00
19868;DHT22;10096;51.112;6.776;2023-02-05T13:58:57;8.20;1.00
19868;DHT22;10096;51.112;6.776;2023-02-05T14:01:26;8.30;1.00
19868;DHT22;10096;51.112;6.776;2023-02-05T14:03:59;8.40;1.00
19868;DHT22;10096;51.112;6.776;2023-02-05T14:06:31;8.20;1.00
19868;DHT22;10096;51.112;6.776;2023-02-05T14:09:02;8.30;1.00
19868;DHT22;10096;51.112;6.776;2023-02-05T14:11:51;8.30;1.00
19868;DHT22;10096;51.112;6.776;2023-02-05T14:14:26;8.20;1.00
19868;DHT22;10096;51.112;6.776;2023-02-05T14:16:53;8.20;1.00
19868;DHT22;10096;51.112;6.776;2023-02-05T14:19:24;8.30;1.00
19868;DHT22;10096;51.112;6.776;2023-02-05T14:22:02;8.30;1.00
19868;DHT22;10096;51.112;6.776;2023-02-05T14:24:44;8.30;1.00
19868;DHT22;10096;51.112;6.776;2023-02-05T14:27:42;8.30;1.00
19868;DHT22;10096;51.112;6.776;2023-02-05T14:30:46;8.60;1.00
19868;DHT22;10096;51.112;6.776;2023-02-05T14:33:40;8.40;1.00
19868;DHT22;10096;51.112;6.776;2023-02-05T14:36:29;8.30;1.00
19868;DHT22;10096;51.112;6.776;2023-02-05T14:39:04;8.40;1.00
19868;DHT22;10096;51.112;6.776;2023-02-05T14:41:45;8.30;1.00
19868;DHT22;10096;51.112;6.776;2023-02-05T14:44:18;8.20;1.00
19868;DHT22;10096;51.112;6.776;2023-02-05T14:47:00;8.20;1.00
19868;DHT22;10096;51.112;6.776;2023-02-05T14:49:34;8.20;1.00
19868;DHT22;10096;51.112;6.776;2023-02-05T14:52:04;8.20;1.00
19868;DHT22;10096;51.112;6.776;2023-02-05T14:54:41;8.20;1.00
19868;DHT22;10096;51.112;6.776;2023-02-05T14:57:17;8.20;1.00
19868;DHT22;10096;51.112;6.776;2023-02-05T14:59:52;8.40;1.00
19868;DHT22;10096;51.112;6.776;2023-02-05T15:02:46;8.30;1.00
19868;DHT22;10096;51.112;6.776;2023-02-05T15:05:18;8.30;1.00
19868;DHT22;10096;51.112;6.776;2023-02-05T15:07:46;8.30;1.00
19868;DHT22;10096;51.112;6.776;2023-02-05T15:10:20;8.30;1.00
19868;DHT22;10096;51.112;6.776;2023-02-05T15:18:52;8.50;1.00
19868;DHT22;10096;51.112;6.776;2023-02-05T15:21:26;8.40;1.00
19868;DHT22;10096;51.112;6.776;2023-02-05T15:23:59;8.30;1.00
19868;DHT22;10096;51.112;6.776;2023-02-05T15:26:34;8.40;1.00
19868;DHT22;10096;51.112;6.776;2023-02-05T15:29:05;8.30;1.00
19868;DHT22;10096;51.112;6.776;2023-02-05T15:31:37;8.20;1.00
19868;DHT22;10096;51.112;6.776;2023-02-05T15:34:22;8.40;1.00
19868;DHT22;10096;51.112;6.776;2023-02-05T15:36:54;8.60;1.00
19868;DHT22;10096;51.112;6.776;2023-02-05T15:39:28;8.30;1.00
19868;DHT22;10096;51.112;6.776;2023-02-05T15:41:58;8.30;1.00
19868;DHT22;10096;51.112;6.776;2023-02-05T15:44:27;8.30;1.00
19868;DHT22;10096;51.112;6.776;2023-02-05T15:46:57;8.40;1.00
19868;DHT22;10096;51.112;6.776;2023-02-05T15:49:30;8.60;1.00
19868;DHT22;10096;51.112;6.776;2023-02-05T15:51:58;8.40;1.00
19868;DHT22;10096;51.112;6.776;2023-02-05T15:54:25;8.40;1.00
19868;DHT22;10096;51.112;6.776;2023-02-05T15:56:53;8.50;1.00
19868;DHT22;10096;51.112;6.776;2023-02-05T15:59:23;8.40;1.00
19868;DHT22;10096;51.112;6.776;2023-02-05T16:02:00;8.40;1.00
19868;DHT22;10096;51.112;6.776;2023-02-05T16:04:30;8.30;1.00
19868;DHT22;10096;51.112;6.776;2023-02-05T16:06:59;8.30;1.00
19868;DHT22;10096;51.112;6.776;2023-02-05T16:09:28;8.20;1.00
19868;DHT22;10096;51.112;6.776;2023-02-05T16:11:55;8.10;1.00
19868;DHT22;10096;51.112;6.776;2023-02-05T16:14:25;7.80;1.00
19868;DHT22;10096;51.112;6.776;2023-02-05T16:17:01;7.80;1.00
19868;DHT22;10096;51.112;6.776;2023-02-05T16:19:35;7.80;1.00
19868;DHT22;10096;51.112;6.776;2023-02-05T16:22:22;7.90;1.00
19868;DHT22;10096;51.112;6.776;2023-02-05T16:24:52;7.90;1.00
19868;DHT22;10096;51.112;6.776;2023-02-05T16:27:32;7.90;1.00
19868;DHT22;10096;51.112;6.776;2023-02-05T16:30:04;8.10;1.00
19868;DHT22;10096;51.112;6.776;2023-02-05T16:32:36;8.10;1.00
19868;DHT22;10096;51.112;6.776;2023-02-05T16:35:08;8.10;1.00
19868;DHT22;10096;51.112;6.776;2023-02-05T16:37:41;8.10;1.00
19868;DHT22;10096;51.112;6.776;2023-02-05T16:40:11;8.10;1.00
19868;DHT22;10096;51.112;6.776;2023-02-05T16:42:39;8.10;1.00
19868;DHT22;10096;51.112;6.776;2023-02-05T16:45:19;8.10;1.00